DRK401 VNKT-VQPR
Flight info
| Callsign | DRK401 |
|---|---|
| Flight time | N/A |
| Altitude | 33000 |
| Route | IGRIS1D KIMTI G348 SUBSU DCT TAKTI DCT PRO |
| Aircraft | A320/M-SDE3FGHIRWY/LB1 |
Departure
| Time | 2026-04-30 08:24 |
|---|---|
| Airport | Tribhuvan International Airport (VNKT) |
Arrival
| Time | N/A |
|---|---|
| Airport | Paro International Airport (VQPR) |
| Time | Latitude | Longitude | Altitude | Speed | Heading |
|---|---|---|---|---|---|
| 2026-04-30 07:50 | 27.69937 | 85.35811 | 4398 ft | 0 kts | 292° |
| 2026-04-30 08:12 | 27.69937 | 85.35812 | 4398 ft | 1 kts | 292° |
| 2026-04-30 08:12 | 27.69932 | 85.35826 | 4398 ft | 3 kts | 290° |
| 2026-04-30 08:12 | 27.69925 | 85.35848 | 4398 ft | 3 kts | 286° |
| 2026-04-30 08:12 | 27.69920 | 85.35870 | 4397 ft | 3 kts | 278° |
| 2026-04-30 08:13 | 27.69918 | 85.35892 | 4397 ft | 3 kts | 263° |
| 2026-04-30 08:13 | 27.69923 | 85.35912 | 4397 ft | 3 kts | 225° |
| 2026-04-30 08:13 | 27.69929 | 85.35918 | 4397 ft | 0 kts | 201° |
| 2026-04-30 08:17 | 27.69920 | 85.35914 | 4397 ft | 4 kts | 201° |
| 2026-04-30 08:18 | 27.69876 | 85.35894 | 4397 ft | 9 kts | 201° |
| 2026-04-30 08:18 | 27.69798 | 85.35859 | 4397 ft | 15 kts | 202° |
| 2026-04-30 08:18 | 27.69697 | 85.35812 | 4398 ft | 16 kts | 202° |
| 2026-04-30 08:18 | 27.69592 | 85.35765 | 4398 ft | 17 kts | 202° |
| 2026-04-30 08:19 | 27.69479 | 85.35714 | 4396 ft | 19 kts | 202° |
| 2026-04-30 08:19 | 27.69352 | 85.35655 | 4394 ft | 21 kts | 201° |
| 2026-04-30 08:19 | 27.69212 | 85.35592 | 4391 ft | 22 kts | 202° |
| 2026-04-30 08:19 | 27.69094 | 85.35556 | 4388 ft | 13 kts | 160° |
| 2026-04-30 08:20 | 27.69040 | 85.35616 | 4391 ft | 9 kts | 163° |
| 2026-04-30 08:20 | 27.68988 | 85.35608 | 4391 ft | 6 kts | 200° |
| 2026-04-30 08:20 | 27.68954 | 85.35593 | 4391 ft | 6 kts | 201° |
| 2026-04-30 08:20 | 27.68904 | 85.35570 | 4392 ft | 10 kts | 202° |
| 2026-04-30 08:21 | 27.68825 | 85.35535 | 4391 ft | 15 kts | 202° |
| 2026-04-30 08:21 | 27.68713 | 85.35483 | 4388 ft | 19 kts | 201° |
| 2026-04-30 08:21 | 27.68581 | 85.35424 | 4394 ft | 21 kts | 202° |
| 2026-04-30 08:21 | 27.68465 | 85.35349 | 4396 ft | 17 kts | 230° |
| 2026-04-30 08:22 | 27.68417 | 85.35338 | 4397 ft | 6 kts | 103° |
| 2026-04-30 08:22 | 27.68458 | 85.35367 | 4396 ft | 6 kts | 20° |
| 2026-04-30 08:22 | 27.68501 | 85.35386 | 4396 ft | 3 kts | 22° |
| 2026-04-30 08:22 | 27.68508 | 85.35389 | 4396 ft | 0 kts | 22° |
| 2026-04-30 08:23 | 27.68508 | 85.35390 | 4396 ft | 1 kts | 22° |
| 2026-04-30 08:23 | 27.68596 | 85.35429 | 4394 ft | 36 kts | 21° |
| 2026-04-30 08:23 | 27.69059 | 85.35638 | 4391 ft | 106 kts | 21° |
| 2026-04-30 08:23 | 27.69924 | 85.36032 | 4395 ft | 160 kts | 21° |
| 2026-04-30 08:24 | 27.71048 | 85.36534 | 4816 ft | 178 kts | 22° |
| 2026-04-30 08:24 | 27.72182 | 85.37105 | 5554 ft | 179 kts | 29° |
| 2026-04-30 08:24 | 27.73147 | 85.37943 | 6362 ft | 171 kts | 47° |
| 2026-04-30 08:24 | 27.73825 | 85.39006 | 7022 ft | 164 kts | 63° |
| 2026-04-30 08:25 | 27.74225 | 85.40196 | 7549 ft | 162 kts | 78° |
| 2026-04-30 08:25 | 27.74333 | 85.41463 | 8002 ft | 164 kts | 93° |
| 2026-04-30 08:25 | 27.74196 | 85.42768 | 8324 ft | 173 kts | 103° |
| 2026-04-30 08:25 | 27.73844 | 85.44114 | 8646 ft | 184 kts | 116° |
| 2026-04-30 08:26 | 27.73134 | 85.45334 | 9021 ft | 191 kts | 135° |
| 2026-04-30 08:26 | 27.72081 | 85.46326 | 9284 ft | 206 kts | 149° |
| 2026-04-30 08:26 | 27.70737 | 85.47107 | 9469 ft | 229 kts | 156° |
| 2026-04-30 08:26 | 27.69204 | 85.47871 | 9782 ft | 253 kts | 158° |
| 2026-04-30 08:27 | 27.67545 | 85.48706 | 10066 ft | 277 kts | 154° |
| 2026-04-30 08:27 | 27.65865 | 85.49938 | 10335 ft | 302 kts | 142° |
| 2026-04-30 08:27 | 27.64346 | 85.51686 | 10560 ft | 327 kts | 128° |
| 2026-04-30 08:27 | 27.63151 | 85.53958 | 10897 ft | 346 kts | 114° |
| 2026-04-30 08:28 | 27.62389 | 85.56564 | 11473 ft | 353 kts | 107° |
| 2026-04-30 08:28 | 27.61690 | 85.59240 | 12136 ft | 358 kts | 107° |
| 2026-04-30 08:28 | 27.60970 | 85.61944 | 12790 ft | 363 kts | 108° |
| 2026-04-30 08:28 | 27.60235 | 85.64682 | 13467 ft | 367 kts | 108° |
| 2026-04-30 08:29 | 27.59489 | 85.67451 | 14089 ft | 371 kts | 108° |
| 2026-04-30 08:29 | 27.58603 | 85.70191 | 14671 ft | 375 kts | 115° |
| 2026-04-30 08:29 | 27.57456 | 85.72846 | 15268 ft | 378 kts | 117° |
| 2026-04-30 08:29 | 27.56279 | 85.75510 | 15890 ft | 382 kts | 118° |
| 2026-04-30 08:30 | 27.55090 | 85.78204 | 16484 ft | 386 kts | 118° |
| 2026-04-30 08:30 | 27.53892 | 85.80927 | 17064 ft | 390 kts | 117° |
| 2026-04-30 08:30 | 27.52696 | 85.83687 | 17599 ft | 394 kts | 115° |
| 2026-04-30 08:30 | 27.51745 | 85.86602 | 18165 ft | 399 kts | 107° |
| 2026-04-30 08:31 | 27.51155 | 85.89673 | 18683 ft | 403 kts | 98° |
| 2026-04-30 08:31 | 27.50945 | 85.92840 | 19170 ft | 407 kts | 92° |
| 2026-04-30 08:31 | 27.50841 | 85.96040 | 19657 ft | 411 kts | 92° |
| 2026-04-30 08:31 | 27.50728 | 85.99269 | 20142 ft | 414 kts | 92° |
| 2026-04-30 08:32 | 27.50608 | 86.02526 | 20606 ft | 418 kts | 92° |
| 2026-04-30 08:32 | 27.50480 | 86.05811 | 21068 ft | 422 kts | 92° |
| 2026-04-30 08:32 | 27.50349 | 86.09119 | 21522 ft | 425 kts | 92° |
| 2026-04-30 08:32 | 27.50220 | 86.12459 | 21981 ft | 429 kts | 93° |
| 2026-04-30 08:33 | 27.50090 | 86.15824 | 22458 ft | 432 kts | 93° |
| 2026-04-30 08:33 | 27.49957 | 86.19215 | 22926 ft | 436 kts | 93° |
| 2026-04-30 08:33 | 27.49822 | 86.22639 | 23376 ft | 439 kts | 93° |
| 2026-04-30 08:33 | 27.49664 | 86.26085 | 23774 ft | 442 kts | 96° |
| 2026-04-30 08:34 | 27.49154 | 86.29509 | 24124 ft | 444 kts | 103° |
| 2026-04-30 08:34 | 27.48499 | 86.32902 | 24481 ft | 447 kts | 103° |
| 2026-04-30 08:34 | 27.47843 | 86.36314 | 24901 ft | 450 kts | 103° |
| 2026-04-30 08:34 | 27.47189 | 86.39748 | 25268 ft | 452 kts | 103° |
| 2026-04-30 08:35 | 27.46545 | 86.43159 | 25615 ft | 454 kts | 103° |
| 2026-04-30 08:35 | 27.45877 | 86.46691 | 25987 ft | 457 kts | 103° |
| 2026-04-30 08:35 | 27.45213 | 86.50195 | 26334 ft | 459 kts | 103° |
| 2026-04-30 08:35 | 27.44542 | 86.53718 | 26690 ft | 462 kts | 103° |
| 2026-04-30 08:36 | 27.43867 | 86.57258 | 27050 ft | 464 kts | 103° |
| 2026-04-30 08:36 | 27.43187 | 86.60817 | 27338 ft | 466 kts | 103° |
| 2026-04-30 08:36 | 27.42512 | 86.64344 | 27700 ft | 468 kts | 103° |
| 2026-04-30 08:36 | 27.41826 | 86.67932 | 28032 ft | 470 kts | 103° |
| 2026-04-30 08:37 | 27.41137 | 86.71537 | 28349 ft | 472 kts | 103° |
| 2026-04-30 08:37 | 27.40446 | 86.75155 | 28694 ft | 474 kts | 103° |
| 2026-04-30 08:37 | 27.39752 | 86.78794 | 29026 ft | 477 kts | 103° |
| 2026-04-30 08:37 | 27.39056 | 86.82447 | 29332 ft | 479 kts | 103° |
| 2026-04-30 08:38 | 27.38351 | 86.86120 | 29649 ft | 481 kts | 103° |
| 2026-04-30 08:38 | 27.37638 | 86.89806 | 29942 ft | 483 kts | 103° |
| 2026-04-30 08:38 | 27.36921 | 86.93506 | 30225 ft | 486 kts | 103° |
| 2026-04-30 08:38 | 27.36203 | 86.97221 | 30549 ft | 487 kts | 104° |
| 2026-04-30 08:39 | 27.35484 | 87.00946 | 30771 ft | 489 kts | 104° |
| 2026-04-30 08:39 | 27.34759 | 87.04694 | 31000 ft | 491 kts | 104° |
| 2026-04-30 08:39 | 27.34031 | 87.08449 | 31253 ft | 493 kts | 104° |
| 2026-04-30 08:39 | 27.33308 | 87.12156 | 31551 ft | 492 kts | 104° |
| 2026-04-30 08:40 | 27.32565 | 87.15964 | 31907 ft | 491 kts | 105° |
| 2026-04-30 08:40 | 27.31831 | 87.19704 | 32177 ft | 491 kts | 105° |
| 2026-04-30 08:40 | 27.31095 | 87.23457 | 32511 ft | 491 kts | 105° |
| 2026-04-30 08:40 | 27.30359 | 87.27206 | 32846 ft | 491 kts | 105° |
| 2026-04-30 08:41 | 27.29623 | 87.30959 | 32966 ft | 489 kts | 105° |
| 2026-04-30 08:41 | 27.28185 | 87.38308 | 32988 ft | 478 kts | 105° |
| 2026-04-30 08:42 | 27.26748 | 87.45591 | 32987 ft | 476 kts | 106° |
| 2026-04-30 08:42 | 27.25311 | 87.52857 | 32987 ft | 477 kts | 106° |
| 2026-04-30 08:43 | 27.23878 | 87.60112 | 32991 ft | 476 kts | 105° |
| 2026-04-30 08:43 | 27.22440 | 87.67383 | 32994 ft | 477 kts | 105° |
| 2026-04-30 08:44 | 27.20988 | 87.74656 | 32967 ft | 476 kts | 107° |
| 2026-04-30 08:44 | 27.19527 | 87.81916 | 32966 ft | 477 kts | 107° |
| 2026-04-30 08:45 | 27.18072 | 87.89180 | 32963 ft | 477 kts | 107° |
| 2026-04-30 08:45 | 27.16616 | 87.96449 | 32960 ft | 477 kts | 106° |
| 2026-04-30 08:46 | 27.15156 | 88.03720 | 32934 ft | 478 kts | 106° |
| 2026-04-30 08:46 | 27.13681 | 88.10994 | 32941 ft | 478 kts | 107° |
| 2026-04-30 08:47 | 27.12207 | 88.18218 | 32938 ft | 478 kts | 107° |
| 2026-04-30 08:47 | 27.10730 | 88.25496 | 32954 ft | 478 kts | 106° |
| 2026-04-30 08:48 | 27.09254 | 88.32764 | 32272 ft | 477 kts | 106° |
| 2026-04-30 08:48 | 27.08755 | 88.35209 | 31874 ft | 476 kts | 106° |
| 2026-04-30 08:48 | 27.08026 | 88.38773 | 31307 ft | 473 kts | 106° |
| 2026-04-30 08:48 | 27.07305 | 88.42291 | 30744 ft | 471 kts | 106° |
| 2026-04-30 08:49 | 27.06568 | 88.45885 | 30167 ft | 469 kts | 106° |
| 2026-04-30 08:49 | 27.05848 | 88.49401 | 29540 ft | 467 kts | 106° |
| 2026-04-30 08:49 | 27.05123 | 88.52931 | 28992 ft | 462 kts | 106° |
| 2026-04-30 08:49 | 27.04403 | 88.56430 | 28435 ft | 458 kts | 106° |
| 2026-04-30 08:50 | 27.03689 | 88.59890 | 27897 ft | 453 kts | 106° |
| 2026-04-30 08:50 | 27.02981 | 88.63317 | 27373 ft | 449 kts | 106° |
| 2026-04-30 08:50 | 27.02279 | 88.66711 | 26850 ft | 445 kts | 106° |
| 2026-04-30 08:50 | 27.01584 | 88.70064 | 26343 ft | 439 kts | 106° |
| 2026-04-30 08:51 | 27.00895 | 88.73385 | 25834 ft | 435 kts | 106° |
| 2026-04-30 08:51 | 27.00212 | 88.76677 | 25321 ft | 432 kts | 105° |
| 2026-04-30 08:51 | 26.99533 | 88.79947 | 24820 ft | 429 kts | 105° |
| 2026-04-30 08:51 | 26.98859 | 88.83192 | 24296 ft | 427 kts | 105° |
| 2026-04-30 08:52 | 26.98439 | 88.86484 | 23757 ft | 427 kts | 94° |
| 2026-04-30 08:52 | 26.98553 | 88.89795 | 23224 ft | 426 kts | 84° |
| 2026-04-30 08:52 | 26.98911 | 88.93073 | 22748 ft | 422 kts | 84° |
| 2026-04-30 08:52 | 26.99258 | 88.96324 | 22250 ft | 418 kts | 84° |
| 2026-04-30 08:53 | 26.99598 | 88.99548 | 21759 ft | 415 kts | 84° |
| 2026-04-30 08:53 | 26.99934 | 89.02755 | 21264 ft | 413 kts | 84° |
| 2026-04-30 08:53 | 27.00267 | 89.05942 | 20779 ft | 411 kts | 84° |
| 2026-04-30 08:53 | 27.00598 | 89.09117 | 20300 ft | 409 kts | 84° |
| 2026-04-30 08:54 | 27.00928 | 89.12286 | 19812 ft | 408 kts | 84° |
| 2026-04-30 08:54 | 27.01254 | 89.15440 | 19332 ft | 407 kts | 84° |
| 2026-04-30 08:54 | 27.01581 | 89.18588 | 18851 ft | 405 kts | 84° |
| 2026-04-30 08:54 | 27.01909 | 89.21724 | 18381 ft | 404 kts | 84° |
| 2026-04-30 08:55 | 27.02235 | 89.24837 | 17919 ft | 402 kts | 83° |
| 2026-04-30 08:55 | 27.02556 | 89.27934 | 17584 ft | 397 kts | 83° |
| 2026-04-30 08:55 | 27.02870 | 89.30993 | 17120 ft | 394 kts | 83° |
| 2026-04-30 08:55 | 27.03182 | 89.34032 | 16595 ft | 391 kts | 83° |
| 2026-04-30 08:56 | 27.03491 | 89.37051 | 16224 ft | 388 kts | 83° |
| 2026-04-30 08:56 | 27.03797 | 89.40040 | 15867 ft | 383 kts | 83° |
| 2026-04-30 08:56 | 27.04098 | 89.42999 | 15465 ft | 380 kts | 83° |
| 2026-04-30 08:56 | 27.04468 | 89.45925 | 15048 ft | 378 kts | 74° |
| 2026-04-30 08:57 | 27.05580 | 89.48542 | 14700 ft | 370 kts | 50° |
| 2026-04-30 08:57 | 27.07446 | 89.50391 | 14284 ft | 360 kts | 25° |
| 2026-04-30 08:57 | 27.09773 | 89.51263 | 13855 ft | 350 kts | 2° |
| 2026-04-30 08:57 | 27.12160 | 89.51252 | 13653 ft | 337 kts | 354° |
| 2026-04-30 08:58 | 27.14462 | 89.51149 | 13654 ft | 325 kts | 354° |
| 2026-04-30 08:58 | 27.16668 | 89.51061 | 13656 ft | 311 kts | 354° |
| 2026-04-30 08:58 | 27.18780 | 89.50979 | 13654 ft | 297 kts | 356° |
| 2026-04-30 08:58 | 27.20858 | 89.50896 | 13047 ft | 306 kts | 356° |
| 2026-04-30 08:59 | 27.23052 | 89.50804 | 12200 ft | 323 kts | 356° |
| 2026-04-30 08:59 | 27.25333 | 89.50707 | 11602 ft | 329 kts | 356° |
| 2026-04-30 08:59 | 27.27617 | 89.50628 | 11803 ft | 332 kts | 357° |
| 2026-04-30 08:59 | 27.29988 | 89.50562 | 12129 ft | 352 kts | 355° |
| 2026-04-30 09:00 | 27.32486 | 89.49987 | 11876 ft | 384 kts | 337° |
| 2026-04-30 09:00 | 27.34745 | 89.48389 | 11433 ft | 382 kts | 316° |
| 2026-04-30 09:00 | 27.36378 | 89.46073 | 10909 ft | 377 kts | 302° |
| 2026-04-30 09:00 | 27.37826 | 89.43642 | 10436 ft | 371 kts | 307° |
| 2026-04-30 09:01 | 27.39496 | 89.41568 | 10132 ft | 341 kts | 320° |
| 2026-04-30 09:01 | 27.41295 | 89.40057 | 9846 ft | 305 kts | 323° |
| 2026-04-30 09:01 | 27.42656 | 89.38415 | 9494 ft | 274 kts | 297° |
| 2026-04-30 09:01 | 27.43311 | 89.36542 | 9144 ft | 238 kts | 307° |
| 2026-04-30 09:02 | 27.45928 | 89.36099 | 9419 ft | 199 kts | 62° |
| 2026-04-30 09:02 | 27.45915 | 89.37506 | 9715 ft | 191 kts | 125° |
| 2026-04-30 09:02 | 27.44887 | 89.38519 | 8964 ft | 203 kts | 144° |
| 2026-04-30 09:03 | 27.43859 | 89.39603 | 8350 ft | 197 kts | 125° |
| 2026-04-30 09:03 | 27.43207 | 89.40910 | 8027 ft | 184 kts | 116° |
| 2026-04-30 09:03 | 27.42307 | 89.41762 | 8071 ft | 176 kts | 169° |
| 2026-04-30 09:03 | 27.41106 | 89.41909 | 7757 ft | 170 kts | 158° |
| 2026-04-30 09:04 | 27.40149 | 89.42625 | 7689 ft | 164 kts | 137° |
| 2026-04-30 09:04 | 27.39311 | 89.43501 | 8185 ft | 173 kts | 135° |
| 2026-04-30 09:04 | 27.38496 | 89.44609 | 8833 ft | 193 kts | 127° |
| 2026-04-30 09:04 | 27.37631 | 89.45809 | 9521 ft | 199 kts | 134° |
| 2026-04-30 09:05 | 27.36669 | 89.46927 | 10032 ft | 203 kts | 128° |
| 2026-04-30 09:05 | 27.35634 | 89.48091 | 10193 ft | 223 kts | 155° |
| 2026-04-30 09:05 | 27.34030 | 89.48148 | 10164 ft | 252 kts | 208° |
| 2026-04-30 09:05 | 27.32955 | 89.46697 | 10654 ft | 245 kts | 262° |
| 2026-04-30 09:06 | 27.33333 | 89.44929 | 11242 ft | 244 kts | 313° |
| 2026-04-30 09:06 | 27.34923 | 89.43936 | 10939 ft | 292 kts | 347° |
| 2026-04-30 09:06 | 27.37098 | 89.43743 | 10308 ft | 346 kts | 356° |
| 2026-04-30 09:06 | 27.39541 | 89.43203 | 9909 ft | 363 kts | 335° |
| 2026-04-30 09:07 | 27.41457 | 89.41437 | 9710 ft | 357 kts | 303° |
| 2026-04-30 09:07 | 27.42346 | 89.38880 | 9610 ft | 350 kts | 283° |
| 2026-04-30 09:07 | 27.43337 | 89.36558 | 10110 ft | 319 kts | 328° |
| 2026-04-30 09:07 | 27.45337 | 89.36540 | 10688 ft | 299 kts | 33° |
| 2026-04-30 09:08 | 27.46135 | 89.38535 | 10896 ft | 294 kts | 106° |
| 2026-04-30 09:08 | 27.44935 | 89.40397 | 10918 ft | 303 kts | 146° |
| 2026-04-30 09:08 | 27.43096 | 89.41559 | 10590 ft | 306 kts | 156° |
| 2026-04-30 09:08 | 27.41164 | 89.42480 | 10538 ft | 307 kts | 155° |
| 2026-04-30 09:09 | 27.39290 | 89.43632 | 10535 ft | 304 kts | 146° |
| 2026-04-30 09:09 | 27.37720 | 89.45151 | 10355 ft | 294 kts | 134° |
| 2026-04-30 09:09 | 27.36108 | 89.46525 | 10124 ft | 290 kts | 153° |
| 2026-04-30 09:09 | 27.34311 | 89.47459 | 10228 ft | 280 kts | 151° |
| 2026-04-30 09:10 | 27.32881 | 89.48940 | 10640 ft | 286 kts | 117° |
| 2026-04-30 09:10 | 27.32270 | 89.51066 | 10821 ft | 286 kts | 105° |
| 2026-04-30 09:10 | 27.31464 | 89.53078 | 11256 ft | 284 kts | 129° |
| 2026-04-30 09:10 | 27.29905 | 89.54404 | 11791 ft | 286 kts | 162° |
| 2026-04-30 09:11 | 27.27945 | 89.54762 | 11800 ft | 285 kts | 180° |
| 2026-04-30 09:11 | 27.25975 | 89.54632 | 11670 ft | 283 kts | 189° |
| 2026-04-30 09:11 | 27.24061 | 89.54126 | 11647 ft | 282 kts | 199° |
| 2026-04-30 09:11 | 27.22252 | 89.53282 | 11604 ft | 282 kts | 207° |
| 2026-04-30 09:12 | 27.20505 | 89.52286 | 11543 ft | 282 kts | 208° |
| 2026-04-30 09:12 | 27.18709 | 89.51410 | 11459 ft | 281 kts | 197° |
| 2026-04-30 09:12 | 27.16775 | 89.51201 | 11316 ft | 284 kts | 172° |